createdAt,value
2017-12-15T00:00:25.172Z,77.80
2017-12-15T00:02:52.795Z,75.30
2017-12-15T00:05:20.503Z,75.87
2017-12-15T00:07:48.183Z,82.30
2017-12-15T00:10:15.860Z,78.97
2017-12-15T00:12:43.531Z,74.33
2017-12-15T00:15:11.208Z,76.13
2017-12-15T00:17:38.920Z,66.00
2017-12-15T00:20:06.659Z,73.77
2017-12-15T00:22:34.280Z,70.33
2017-12-15T00:25:01.916Z,63.00
2017-12-15T00:27:29.659Z,79.93
2017-12-15T00:29:57.281Z,77.10
2017-12-15T00:32:24.904Z,71.23
2017-12-15T00:34:52.563Z,63.87
2017-12-15T00:37:20.224Z,72.73
2017-12-15T00:39:47.895Z,83.07
2017-12-15T00:42:15.563Z,77.60
2017-12-15T00:44:43.171Z,58.03
2017-12-15T00:47:10.852Z,52.53
2017-12-15T00:49:38.544Z,48.20
2017-12-15T00:52:06.215Z,46.27
2017-12-15T00:54:33.840Z,61.73
2017-12-15T00:57:01.500Z,44.67
2017-12-15T00:59:29.123Z,46.80
2017-12-15T01:01:56.740Z,48.37
2017-12-15T01:04:24.407Z,61.10
2017-12-15T01:06:52.027Z,63.37
2017-12-15T01:09:19.651Z,54.30
2017-12-15T01:11:47.315Z,53.83
2017-12-15T01:14:14.991Z,51.80
2017-12-15T01:16:42.668Z,48.97
2017-12-15T01:19:10.393Z,53.00
2017-12-15T01:21:38.024Z,48.73
2017-12-15T01:24:05.693Z,53.20
2017-12-15T01:26:33.443Z,56.20
2017-12-15T01:29:01.116Z,48.63
2017-12-15T01:31:28.801Z,47.77
2017-12-15T01:33:56.483Z,52.60
2017-12-15T01:36:24.088Z,64.20
2017-12-15T01:38:51.759Z,52.53
2017-12-15T01:41:19.423Z,64.17
2017-12-15T01:43:47.057Z,54.70
2017-12-15T01:46:14.671Z,56.20
2017-12-15T01:48:42.331Z,47.93
2017-12-15T01:51:09.950Z,48.20
2017-12-15T01:53:37.568Z,49.70
2017-12-15T01:56:05.231Z,52.70
2017-12-15T01:58:32.849Z,49.40
2017-12-15T02:01:00.473Z,61.23
2017-12-15T02:03:28.141Z,47.03
2017-12-15T02:05:55.812Z,47.20
2017-12-15T02:08:23.473Z,78.80
2017-12-15T02:10:51.141Z,73.80
2017-12-15T02:13:18.763Z,58.03
2017-12-15T02:15:46.371Z,61.57
2017-12-15T02:18:14.093Z,56.00
2017-12-15T02:20:41.710Z,53.23
2017-12-15T02:23:09.324Z,59.37
2017-12-15T02:25:37.085Z,56.70
2017-12-15T02:28:04.695Z,59.10
2017-12-15T02:30:32.308Z,44.23
2017-12-15T02:32:59.982Z,33.20
2017-12-15T02:35:27.602Z,41.77
2017-12-15T02:37:55.220Z,36.30
2017-12-15T02:40:22.888Z,41.53
2017-12-15T02:42:50.499Z,35.33
2017-12-15T02:45:18.164Z,40.50
2017-12-15T02:47:45.819Z,43.60
2017-12-15T02:50:13.438Z,39.23
2017-12-15T02:52:41.054Z,42.03
2017-12-15T02:55:08.719Z,45.77
2017-12-15T02:57:36.336Z,51.50
2017-12-15T03:00:04.072Z,52.00
2017-12-15T03:02:31.797Z,49.03
2017-12-15T03:04:59.412Z,42.13
2017-12-15T03:07:27.027Z,44.40
2017-12-15T03:09:54.686Z,63.13
2017-12-15T03:12:22.298Z,73.10
2017-12-15T03:14:49.913Z,63.63
2017-12-15T03:17:17.576Z,66.03
2017-12-15T03:19:45.195Z,55.83
2017-12-15T03:22:12.806Z,65.63
2017-12-15T03:24:40.544Z,69.17
2017-12-15T03:27:08.165Z,57.43
2017-12-15T03:29:35.837Z,50.93
2017-12-15T03:32:03.510Z,61.37
2017-12-15T03:34:31.184Z,54.90
2017-12-15T03:36:58.787Z,63.80
2017-12-15T03:39:26.452Z,52.47
2017-12-15T03:41:54.128Z,53.47
2017-12-15T03:44:21.796Z,58.67
2017-12-15T03:46:49.452Z,55.63
2017-12-15T03:49:17.083Z,53.03
2017-12-15T03:51:44.695Z,66.20
2017-12-15T03:54:12.430Z,48.27
2017-12-15T03:56:40.160Z,47.93
2017-12-15T03:59:07.771Z,52.67
2017-12-15T04:01:35.500Z,71.13
2017-12-15T04:04:03.123Z,70.83
2017-12-15T04:06:30.792Z,67.00
2017-12-15T04:08:58.460Z,58.30
2017-12-15T04:11:26.075Z,53.60
2017-12-15T04:13:53.695Z,60.47
2017-12-15T04:16:21.356Z,50.50
2017-12-15T04:18:48.968Z,53.87
2017-12-15T04:21:16.597Z,58.70
2017-12-15T04:23:44.276Z,65.90
2017-12-15T04:26:11.928Z,49.73
2017-12-15T04:28:39.606Z,55.07
2017-12-15T04:31:07.329Z,52.33
2017-12-15T04:33:34.960Z,50.47
2017-12-15T04:36:02.588Z,49.43
2017-12-15T04:38:30.264Z,50.73
2017-12-15T04:40:57.941Z,59.33
2017-12-15T04:43:25.624Z,60.73
2017-12-15T04:45:53.288Z,71.50
2017-12-15T04:48:20.908Z,68.53
2017-12-15T04:50:48.531Z,62.70
2017-12-15T04:53:16.260Z,58.63
2017-12-15T04:55:43.879Z,86.07
2017-12-15T04:58:11.496Z,59.50
2017-12-15T05:00:39.258Z,67.37
2017-12-15T05:03:06.878Z,62.77
2017-12-15T05:05:34.490Z,53.40
2017-12-15T05:08:02.227Z,50.67
2017-12-15T05:10:29.856Z,48.27
2017-12-15T05:12:57.548Z,45.93
2017-12-15T05:15:25.223Z,32.87
2017-12-15T05:17:52.830Z,37.63
2017-12-15T05:20:20.521Z,32.27
2017-12-15T05:22:48.198Z,86.23
2017-12-15T05:25:15.834Z,74.23
2017-12-15T05:27:43.456Z,41.40
2017-12-15T05:30:11.120Z,44.57
2017-12-15T05:32:38.727Z,58.17
2017-12-15T05:35:06.358Z,37.37
2017-12-15T05:37:34.040Z,45.07
2017-12-15T05:40:01.667Z,50.20
2017-12-15T05:42:29.289Z,36.03
2017-12-15T05:44:57.019Z,55.27
2017-12-15T05:47:24.655Z,58.77
2017-12-15T05:49:52.278Z,76.37
2017-12-15T05:52:20.036Z,70.33
2017-12-15T05:54:47.639Z,61.87
2017-12-15T05:57:15.251Z,50.00
2017-12-15T05:59:42.987Z,33.40
2017-12-15T06:02:10.627Z,38.97
2017-12-15T06:04:38.324Z,53.03
2017-12-15T06:07:05.996Z,37.43
2017-12-15T06:09:33.672Z,42.43
2017-12-15T06:12:01.296Z,68.83
2017-12-15T06:14:28.989Z,57.13
2017-12-15T06:16:56.678Z,54.83
2017-12-15T06:19:24.349Z,51.87
2017-12-15T06:21:52.038Z,56.40
2017-12-15T06:24:19.655Z,93.70
2017-12-15T06:26:47.274Z,113.77
2017-12-15T06:29:14.951Z,125.67
2017-12-15T06:31:42.659Z,103.60
2017-12-15T06:34:10.348Z,153.77
2017-12-15T06:36:38.069Z,176.07
2017-12-15T06:39:05.748Z,166.47
2017-12-15T06:41:33.372Z,175.57
2017-12-15T06:44:01.112Z,162.53
2017-12-15T06:46:28.744Z,162.93
2017-12-15T06:48:56.354Z,144.70
2017-12-15T06:51:25.550Z,154.90
2017-12-15T06:53:53.198Z,165.17
2017-12-15T06:56:20.903Z,156.57
2017-12-15T06:58:48.579Z,133.63
2017-12-15T07:01:16.228Z,134.03
2017-12-15T07:03:43.859Z,136.23
2017-12-15T07:06:11.534Z,156.70
2017-12-15T07:08:39.156Z,126.43
2017-12-15T07:11:06.892Z,78.37
2017-12-15T07:13:34.680Z,60.30
2017-12-15T07:16:02.347Z,43.23
2017-12-15T07:18:30.080Z,36.30
2017-12-15T07:20:57.766Z,42.03
2017-12-15T07:23:25.412Z,35.07
2017-12-15T07:25:53.058Z,31.23
2017-12-15T07:28:20.718Z,19.43
2017-12-15T07:30:48.337Z,27.03
2017-12-15T07:33:16.009Z,25.43
2017-12-15T07:35:43.692Z,34.67
2017-12-15T07:38:11.440Z,37.10
2017-12-15T07:40:39.131Z,39.37
2017-12-15T07:43:06.856Z,55.97
2017-12-15T07:45:34.477Z,74.70
2017-12-15T07:48:02.752Z,67.40
2017-12-15T07:50:30.452Z,67.63
2017-12-15T07:52:58.157Z,67.30
2017-12-15T07:55:25.782Z,86.77
2017-12-15T07:57:53.458Z,62.40
2017-12-15T08:00:21.076Z,75.73
2017-12-15T08:02:48.751Z,68.33
2017-12-15T08:05:16.490Z,122.47
2017-12-15T08:07:44.376Z,91.83
2017-12-15T08:10:12.004Z,99.00
2017-12-15T08:12:40.506Z,87.07
2017-12-15T08:15:09.208Z,79.40
2017-12-15T08:17:36.845Z,64.00
2017-12-15T08:20:04.959Z,87.07
2017-12-15T08:22:32.784Z,90.60
2017-12-15T08:25:00.404Z,112.27
2017-12-15T08:27:28.163Z,141.93
2017-12-15T08:29:55.869Z,129.13
2017-12-15T08:32:23.635Z,144.27
2017-12-15T08:34:51.307Z,142.03
2017-12-15T08:37:18.924Z,168.97
2017-12-15T08:39:46.552Z,125.43
2017-12-15T08:42:15.111Z,121.50
2017-12-15T08:44:43.664Z,129.17
2017-12-15T08:47:11.344Z,90.10
2017-12-15T08:49:39.135Z,69.93
2017-12-15T08:52:06.755Z,49.33
2017-12-15T08:54:34.399Z,36.83
2017-12-15T08:57:02.234Z,59.77
2017-12-15T08:59:29.955Z,67.87
2017-12-15T09:01:57.582Z,55.90
2017-12-15T09:04:25.317Z,61.50
2017-12-15T09:06:52.992Z,77.77
2017-12-15T09:09:20.627Z,51.23
2017-12-15T09:11:48.309Z,85.90
2017-12-15T09:14:15.930Z,76.87
2017-12-15T09:16:43.705Z,66.43
2017-12-15T09:19:12.327Z,183.77
2017-12-15T09:21:40.026Z,121.27
2017-12-15T09:24:07.717Z,79.20
2017-12-15T09:26:35.401Z,115.67
2017-12-15T09:29:03.036Z,96.97
2017-12-15T09:31:30.668Z,74.03
2017-12-15T09:33:58.401Z,106.17
2017-12-15T09:36:26.060Z,101.23
2017-12-15T09:38:53.711Z,95.70
2017-12-15T09:41:22.211Z,93.97
2017-12-15T09:43:49.928Z,123.47
2017-12-15T09:46:17.806Z,114.13
2017-12-15T09:48:45.545Z,133.00
2017-12-15T09:51:13.187Z,119.70
2017-12-15T09:53:51.180Z,68.10
2017-12-15T09:56:18.883Z,62.80
2017-12-15T09:58:47.491Z,44.50
2017-12-15T10:01:25.131Z,21.30
2017-12-15T10:04:00.547Z,33.70
2017-12-15T10:06:31.608Z,37.63
2017-12-15T10:09:02.178Z,38.93
2017-12-15T10:11:37.459Z,36.47
2017-12-15T10:14:07.261Z,30.30
2017-12-15T10:16:35.846Z,43.67
2017-12-15T10:19:07.428Z,25.93
2017-12-15T10:21:35.111Z,31.70
2017-12-15T10:24:12.374Z,27.23
2017-12-15T10:26:40.271Z,19.97
2017-12-15T10:29:26.375Z,14.97
2017-12-15T10:31:55.154Z,15.37
2017-12-15T10:34:22.835Z,15.43
2017-12-15T10:36:51.491Z,13.13
2017-12-15T10:39:19.633Z,20.70
2017-12-15T10:41:48.251Z,11.13
2017-12-15T10:44:16.001Z,9.93
2017-12-15T10:46:43.627Z,14.30
2017-12-15T10:49:11.396Z,6.10
2017-12-15T10:51:49.215Z,9.37
2017-12-15T10:54:16.859Z,10.60
2017-12-15T10:56:44.530Z,8.20
2017-12-15T10:59:16.405Z,8.13
2017-12-15T11:01:44.036Z,28.73
2017-12-15T11:04:11.715Z,8.77
2017-12-15T11:06:39.440Z,9.17
2017-12-15T11:09:07.947Z,10.93
2017-12-15T11:11:35.884Z,8.53
2017-12-15T11:14:06.592Z,14.37
2017-12-15T11:16:34.987Z,7.10
2017-12-15T11:19:02.663Z,8.77
2017-12-15T11:21:32.063Z,6.77
2017-12-15T11:23:59.749Z,7.60
2017-12-15T11:26:27.618Z,8.40
2017-12-15T11:28:56.007Z,7.67
2017-12-15T11:31:46.283Z,7.57
2017-12-15T11:34:14.866Z,7.17
2017-12-15T11:36:42.583Z,8.63
2017-12-15T11:39:10.378Z,12.73
2017-12-15T11:41:40.940Z,6.43
2017-12-15T11:44:18.950Z,10.10
2017-12-15T11:46:53.652Z,9.83
2017-12-15T11:49:28.411Z,13.50
2017-12-15T11:51:56.946Z,10.73
2017-12-15T11:54:28.143Z,11.20
2017-12-15T11:57:03.661Z,11.13
2017-12-15T11:59:42.840Z,11.77
2017-12-15T12:02:23.564Z,9.57
2017-12-15T12:04:51.226Z,201.53
2017-12-15T12:07:33.788Z,10.57
2017-12-15T12:10:02.331Z,7.00
2017-12-15T12:12:31.164Z,21.73
2017-12-15T12:14:59.734Z,8.83
2017-12-15T12:17:28.070Z,17.70
2017-12-15T12:19:55.862Z,9.13
2017-12-15T12:22:31.083Z,10.77
2017-12-15T12:25:06.522Z,12.10
2017-12-15T12:27:35.874Z,9.40
2017-12-15T12:30:10.603Z,9.90
2017-12-15T12:32:48.471Z,12.13
2017-12-15T12:35:28.035Z,9.80
2017-12-15T12:37:57.596Z,14.47
2017-12-15T12:40:26.494Z,15.63
2017-12-15T12:43:04.501Z,10.00
2017-12-15T12:45:35.287Z,13.50
2017-12-15T12:48:02.919Z,10.60
2017-12-15T12:50:45.450Z,15.13
2017-12-15T12:53:23.234Z,15.53
2017-12-15T12:55:53.835Z,11.57
2017-12-15T12:58:24.255Z,17.63
2017-12-15T13:00:58.826Z,9.57
2017-12-15T13:03:27.276Z,12.20
2017-12-15T13:05:56.163Z,15.20
2017-12-15T13:08:24.900Z,56.20
2017-12-15T13:10:59.607Z,103.80
2017-12-15T13:13:30.991Z,38.40
2017-12-15T13:15:59.259Z,48.50
2017-12-15T13:18:27.883Z,76.07
2017-12-15T13:20:55.557Z,38.17
2017-12-15T13:23:23.225Z,27.97
2017-12-15T13:25:51.667Z,25.17
2017-12-15T13:28:19.466Z,23.57
2017-12-15T13:30:47.874Z,41.03
2017-12-15T13:33:16.266Z,31.33
2017-12-15T13:35:44.742Z,30.50
2017-12-15T13:38:12.438Z,35.90
2017-12-15T13:40:40.087Z,44.63
2017-12-15T13:43:07.827Z,38.53
2017-12-15T13:45:36.251Z,34.13
2017-12-15T13:48:03.987Z,44.30
2017-12-15T13:50:31.767Z,38.43
2017-12-15T13:53:06.386Z,46.07
2017-12-15T13:55:34.083Z,52.30
2017-12-15T13:58:01.852Z,46.60
2017-12-15T14:00:29.598Z,39.63
2017-12-15T14:02:57.423Z,51.17
2017-12-15T14:05:27.932Z,50.43
2017-12-15T14:07:55.590Z,43.93
2017-12-15T14:10:23.276Z,39.83
2017-12-15T14:12:51.015Z,30.83
2017-12-15T14:15:18.870Z,24.50
2017-12-15T14:17:46.739Z,20.80
2017-12-15T14:20:15.235Z,20.80
2017-12-15T14:22:42.936Z,24.10
2017-12-15T14:25:10.696Z,25.43
2017-12-15T14:27:38.339Z,12.43
2017-12-15T14:30:06.003Z,19.10
2017-12-15T14:32:33.763Z,73.20
2017-12-15T14:35:01.751Z,35.43
2017-12-15T14:37:30.283Z,25.80
2017-12-15T14:39:58.278Z,65.20
2017-12-15T14:42:26.106Z,24.33
2017-12-15T14:45:04.004Z,26.73
2017-12-15T14:47:34.318Z,25.00
2017-12-15T14:50:02.151Z,29.33
2017-12-15T14:52:36.977Z,31.70
2017-12-15T14:55:05.770Z,22.23
2017-12-15T14:57:33.631Z,24.13
2017-12-15T15:00:18.363Z,17.17
2017-12-15T15:02:52.911Z,22.07
2017-12-15T15:05:20.882Z,28.23
2017-12-15T15:07:48.495Z,26.63
2017-12-15T15:10:26.563Z,20.50
2017-12-15T15:12:54.184Z,20.23
2017-12-15T15:15:28.791Z,21.33
2017-12-15T15:18:07.687Z,30.37
2017-12-15T15:20:35.470Z,24.73
2017-12-15T15:23:03.112Z,25.13
2017-12-15T15:25:30.841Z,29.83
2017-12-15T15:27:58.596Z,24.87
2017-12-15T15:30:26.304Z,36.17
2017-12-15T15:32:53.935Z,30.43
2017-12-15T15:35:21.771Z,16.10
2017-12-15T15:37:50.518Z,27.30
2017-12-15T15:40:18.225Z,20.30
2017-12-15T15:42:55.823Z,21.20
2017-12-15T15:45:23.775Z,77.27
2017-12-15T15:47:52.223Z,36.67
2017-12-15T15:50:20.320Z,38.67
2017-12-15T15:52:47.976Z,15.03
2017-12-15T15:55:15.615Z,13.50
2017-12-15T15:57:43.619Z,20.20
2017-12-15T16:00:14.122Z,20.40
2017-12-15T16:02:41.840Z,21.03
2017-12-15T16:05:09.594Z,31.57
2017-12-15T16:07:38.164Z,29.97
2017-12-15T16:10:05.830Z,19.70
2017-12-15T16:12:33.502Z,24.67
2017-12-15T16:15:01.361Z,20.27
2017-12-15T16:17:29.106Z,22.83
2017-12-15T16:19:56.802Z,31.97
2017-12-15T16:22:24.549Z,12.10
2017-12-15T16:24:52.177Z,13.70
2017-12-15T16:27:20.674Z,15.93
2017-12-15T16:29:48.322Z,24.93
2017-12-15T16:32:15.975Z,17.53
2017-12-15T16:34:44.655Z,17.23
2017-12-15T16:37:12.459Z,24.20
2017-12-15T16:39:40.230Z,31.83
2017-12-15T16:42:08.003Z,35.57
2017-12-15T16:44:35.687Z,24.27
2017-12-15T16:47:03.448Z,20.50
2017-12-15T16:49:31.298Z,32.30
2017-12-15T16:51:58.988Z,24.50
2017-12-15T16:54:27.489Z,17.93
2017-12-15T16:56:55.357Z,18.80
2017-12-15T16:59:23.037Z,31.60
2017-12-15T17:01:50.903Z,19.73
2017-12-15T17:04:18.798Z,19.40
2017-12-15T17:06:46.500Z,23.70
2017-12-15T17:09:14.331Z,17.17
2017-12-15T17:11:42.824Z,17.40
2017-12-15T17:14:11.272Z,31.23
2017-12-15T17:16:39.170Z,18.80
2017-12-15T17:19:07.759Z,28.27
2017-12-15T17:21:35.411Z,22.63
2017-12-15T17:24:04.148Z,19.97
2017-12-15T17:26:31.955Z,18.30
2017-12-15T17:28:59.810Z,16.10
2017-12-15T17:31:27.511Z,14.93
2017-12-15T17:33:55.291Z,16.17
2017-12-15T17:36:22.964Z,24.80
2017-12-15T17:38:50.679Z,28.87
2017-12-15T17:41:18.424Z,16.83
2017-12-15T17:43:46.151Z,18.80
2017-12-15T17:46:13.819Z,19.33
2017-12-15T17:48:41.512Z,13.67
2017-12-15T17:51:09.202Z,23.43
2017-12-15T17:53:36.871Z,32.83
2017-12-15T17:56:04.648Z,42.93
2017-12-15T17:58:32.919Z,31.03
2017-12-15T18:01:00.550Z,41.73
2017-12-15T18:03:28.275Z,32.83
2017-12-15T18:05:55.956Z,42.60
2017-12-15T18:08:23.636Z,39.30
2017-12-15T18:10:51.346Z,21.57
2017-12-15T18:13:19.404Z,38.30
2017-12-15T18:15:47.026Z,35.43
2017-12-15T18:18:14.791Z,29.20
2017-12-15T18:20:42.423Z,32.27
2017-12-15T18:23:10.159Z,35.13
2017-12-15T18:25:37.839Z,42.33
2017-12-15T18:28:05.539Z,79.10
2017-12-15T18:30:33.283Z,73.93
2017-12-15T18:33:01.043Z,51.77
2017-12-15T18:35:28.733Z,63.67
2017-12-15T18:37:56.462Z,45.73
2017-12-15T18:40:24.283Z,61.73
2017-12-15T18:42:51.963Z,54.23
2017-12-15T18:45:19.582Z,46.83
2017-12-15T18:47:47.336Z,46.93
2017-12-15T18:50:15.062Z,46.47
2017-12-15T18:52:42.739Z,37.50
2017-12-15T18:55:10.504Z,31.63
2017-12-15T18:57:38.310Z,20.90
2017-12-15T19:00:06.136Z,22.17
2017-12-15T19:02:33.875Z,20.53
2017-12-15T19:05:01.675Z,18.90
2017-12-15T19:07:29.435Z,18.43
2017-12-15T19:09:57.119Z,34.57
2017-12-15T19:12:24.869Z,54.33
2017-12-15T19:14:53.276Z,20.50
2017-12-15T19:17:21.103Z,13.03
2017-12-15T19:19:48.833Z,15.40
2017-12-15T19:22:17.459Z,24.73
2017-12-15T19:24:45.238Z,20.87
2017-12-15T19:27:12.939Z,13.20
2017-12-15T19:29:40.614Z,23.03
2017-12-15T19:32:08.298Z,18.30
2017-12-15T19:34:36.066Z,22.00
2017-12-15T19:37:04.580Z,33.67
2017-12-15T19:39:32.255Z,20.00
2017-12-15T19:41:59.998Z,25.87
2017-12-15T19:44:29.512Z,20.97
2017-12-15T19:46:57.302Z,25.60
2017-12-15T19:49:24.964Z,18.23
2017-12-15T19:51:52.691Z,15.53
2017-12-15T19:54:20.359Z,16.83
2017-12-15T19:56:47.972Z,12.70
2017-12-15T19:59:15.614Z,19.23
2017-12-15T20:01:43.315Z,17.97
2017-12-15T20:04:11.192Z,27.53
2017-12-15T20:06:39.667Z,28.43
2017-12-15T20:09:08.251Z,17.70
2017-12-15T20:11:35.935Z,11.40
2017-12-15T20:14:04.278Z,31.87
2017-12-15T20:16:32.899Z,19.63
2017-12-15T20:19:01.039Z,15.27
2017-12-15T20:21:28.966Z,18.03
2017-12-15T20:23:56.886Z,11.67
2017-12-15T20:26:24.551Z,15.90
2017-12-15T20:28:53.379Z,25.40
2017-12-15T20:31:21.914Z,23.80
2017-12-15T20:33:49.530Z,35.50
2017-12-15T20:36:17.143Z,20.33
2017-12-15T20:38:47.791Z,24.77
2017-12-15T20:41:15.596Z,16.30
2017-12-15T20:43:44.232Z,33.80
2017-12-15T20:46:12.039Z,25.83
2017-12-15T20:48:39.683Z,28.00
2017-12-15T20:51:17.639Z,37.30
2017-12-15T20:53:52.351Z,18.67
2017-12-15T20:56:23.022Z,5.20
2017-12-15T20:58:51.015Z,8.00
2017-12-15T21:01:19.659Z,6.70
2017-12-15T21:03:47.551Z,4.53
2017-12-15T21:06:15.399Z,6.20
2017-12-15T21:08:43.168Z,6.20
2017-12-15T21:11:17.823Z,5.00
2017-12-15T21:13:46.607Z,6.93
2017-12-15T21:16:18.128Z,5.50
2017-12-15T21:18:45.862Z,4.57
2017-12-15T21:21:14.172Z,5.23
2017-12-15T21:23:45.767Z,11.87
2017-12-15T21:26:14.384Z,36.30
2017-12-15T21:28:44.845Z,37.70
2017-12-15T21:31:15.539Z,7.60
2017-12-15T21:33:43.247Z,6.50
2017-12-15T21:36:10.924Z,6.57
2017-12-15T21:38:41.591Z,9.10
2017-12-15T21:41:09.212Z,12.80
2017-12-15T21:43:36.831Z,12.77
2017-12-15T21:46:14.423Z,6.17
2017-12-15T21:48:44.879Z,6.30
2017-12-15T21:51:13.475Z,6.43
2017-12-15T21:53:42.947Z,11.07
2017-12-15T21:56:13.526Z,22.37
2017-12-15T21:58:41.203Z,14.90
2017-12-15T22:01:08.893Z,14.80
2017-12-15T22:03:36.528Z,14.90
2017-12-15T22:06:04.929Z,11.17
2017-12-15T22:08:32.595Z,7.17
2017-12-15T22:11:01.024Z,48.47
2017-12-15T22:13:31.759Z,8.57
2017-12-15T22:15:59.427Z,12.93
2017-12-15T22:18:27.158Z,12.00
2017-12-15T22:20:55.531Z,7.77
2017-12-15T22:23:23.215Z,6.93
2017-12-15T22:25:50.838Z,21.43
2017-12-15T22:28:18.444Z,6.30
2017-12-15T22:30:46.178Z,8.87
2017-12-15T22:33:14.487Z,15.87
2017-12-15T22:35:42.650Z,7.07
2017-12-15T22:38:11.414Z,9.00
2017-12-15T22:40:42.140Z,10.70
2017-12-15T22:43:16.676Z,18.30
2017-12-15T22:45:44.363Z,17.60
2017-12-15T22:48:12.051Z,21.43
2017-12-15T22:50:40.026Z,9.27
2017-12-15T22:53:08.069Z,6.07
2017-12-15T22:55:35.679Z,7.70
2017-12-15T22:58:03.419Z,7.83
2017-12-15T23:00:32.018Z,9.13
2017-12-15T23:02:59.819Z,9.40
2017-12-15T23:05:30.438Z,7.53
2017-12-15T23:07:58.099Z,5.03
2017-12-15T23:10:26.804Z,13.93
2017-12-15T23:12:55.397Z,13.20
2017-12-15T23:15:23.307Z,13.60
2017-12-15T23:17:51.043Z,10.23
2017-12-15T23:20:18.786Z,8.83
2017-12-15T23:22:47.359Z,9.50
2017-12-15T23:25:17.705Z,16.63
2017-12-15T23:27:46.335Z,8.73
2017-12-15T23:30:16.871Z,13.40
2017-12-15T23:32:45.823Z,8.73
2017-12-15T23:35:14.467Z,11.07
2017-12-15T23:37:54.047Z,8.37
2017-12-15T23:40:25.295Z,10.23
2017-12-15T23:42:55.663Z,8.27
2017-12-15T23:45:30.319Z,6.50
2017-12-15T23:48:11.058Z,6.17
2017-12-15T23:50:42.927Z,9.80
2017-12-15T23:53:11.535Z,7.60
2017-12-15T23:55:51.119Z,11.37
2017-12-15T23:58:18.831Z,6.43
